Time;durP1;ratioP1;P1;durP2;ratioP2;P2;SDS_P1;SDS_P2;PMS_P1;PMS_P2;Temp;Humidity;BMP_temperature;BMP_pressure;BME280_temperature;BME280_humidity;BME280_pressure;Samples;Min_cycle;Max_cycle;Signal;HPM_P1;HPM_P2
2022/01/31 00:01:33;;;;;;;27.15;6.07;;;;;;;4.61;67.58;101254.50;5113023;28;20051;-65
2022/01/31 00:04:00;;;;;;;35.58;5.90;;;;;;;4.59;67.96;101243.25;5113117;28;20089;-66
2022/01/31 00:06:26;;;;;;;23.05;5.40;;;;;;;4.57;67.82;101243.34;5110246;28;20093;-65
2022/01/31 00:08:53;;;;;;;43.35;6.07;;;;;;;4.59;68.17;101232.75;5112090;28;20089;-65
2022/01/31 00:11:21;;;;;;;27.40;5.93;;;;;;;4.65;67.85;101203.41;5113328;28;20039;-65
2022/01/31 00:13:57;;;;;;;22.63;5.30;;;;;;;4.56;67.89;101183.84;5113122;28;20047;-65
2022/01/31 00:16:31;;;;;;;29.67;5.30;;;;;;;4.48;67.83;101164.31;5096792;28;20040;-65
2022/01/31 00:18:58;;;;;;;23.70;5.18;;;;;;;4.51;68.70;101167.59;5113157;28;20543;-65
2022/01/31 00:21:26;;;;;;;23.88;5.28;;;;;;;4.59;68.12;101191.53;5113757;28;20051;-65
2022/01/31 00:23:52;;;;;;;22.00;5.35;;;;;;;4.48;68.36;101191.44;5114253;28;20039;-65
2022/01/31 00:26:19;;;;;;;20.45;4.82;;;;;;;4.56;67.87;101194.38;5117292;28;20040;-65
2022/01/31 00:28:46;;;;;;;26.48;5.25;;;;;;;4.56;68.05;101181.22;5116235;28;20044;-65
2022/01/31 00:31:12;;;;;;;24.48;4.70;;;;;;;4.40;68.55;101178.81;5116833;28;20040;-65
2022/01/31 00:33:39;;;;;;;20.50;4.75;;;;;;;4.46;69.20;101163.56;5115619;28;20040;-65
2022/01/31 00:36:06;;;;;;;29.08;5.47;;;;;;;4.54;69.26;101150.75;5116593;28;20084;-65
2022/01/31 00:38:32;;;;;;;22.25;4.72;;;;;;;4.57;68.24;101140.88;5115932;28;20043;-65
2022/01/31 00:40:59;;;;;;;34.17;5.45;;;;;;;4.59;68.94;101132.91;5115854;28;20040;-65
2022/01/31 00:43:26;;;;;;;16.80;4.45;;;;;;;4.60;68.56;101126.69;5114745;28;20046;-65
2022/01/31 00:45:59;;;;;;;21.42;5.30;;;;;;;4.53;68.76;101131.53;5107422;27;20373;-65
2022/01/31 00:48:29;;;;;;;18.58;4.47;;;;;;;4.50;68.29;101123.84;5095136;28;20036;-64
2022/01/31 00:50:56;;;;;;;27.55;5.00;;;;;;;4.48;68.87;101107.34;5095811;28;20044;-65
2022/01/31 00:53:23;;;;;;;24.55;5.10;;;;;;;4.49;69.09;101106.38;5096482;28;20040;-65
2022/01/31 00:55:49;;;;;;;18.17;4.30;;;;;;;4.46;69.47;101093.50;5095306;28;20143;-64
2022/01/31 00:58:16;;;;;;;24.02;5.47;;;;;;;4.42;69.67;101087.59;5096426;28;20128;-65
2022/01/31 01:00:43;;;;;;;20.95;4.82;;;;;;;4.35;70.17;101073.22;5095761;28;20201;-65
2022/01/31 01:03:10;;;;;;;26.30;4.93;;;;;;;4.48;69.54;101053.97;5078173;28;20123;-65
2022/01/31 01:05:37;;;;;;;20.80;4.95;;;;;;;4.53;69.53;101042.19;5094578;28;20036;-64
2022/01/31 01:08:04;;;;;;;18.77;4.90;;;;;;;4.50;69.57;101029.25;5062132;28;20558;-65
2022/01/31 01:10:32;;;;;;;23.50;4.65;;;;;;;4.46;69.80;101009.41;5095090;28;20518;-65
2022/01/31 01:12:58;;;;;;;18.08;4.50;;;;;;;4.58;69.68;100998.06;5078247;28;20863;-64
2022/01/31 01:15:25;;;;;;;19.60;4.40;;;;;;;4.59;70.02;100999.72;5095936;28;20399;-64
2022/01/31 01:17:52;;;;;;;20.75;4.65;;;;;;;4.66;69.61;100994.88;5095035;28;20058;-65
2022/01/31 01:20:19;;;;;;;24.55;4.57;;;;;;;4.55;69.81;100968.53;5094680;28;20040;-65
2022/01/31 01:22:47;;;;;;;21.00;4.47;;;;;;;4.72;69.07;100955.00;5096012;28;20404;-64
2022/01/31 01:25:15;;;;;;;21.38;4.32;;;;;;;4.80;69.66;100936.03;5096061;28;20131;-65
2022/01/31 01:27:45;;;;;;;28.92;5.25;;;;;;;4.84;69.64;100926.13;5095709;28;20041;-64
2022/01/31 01:30:14;;;;;;;15.40;4.13;;;;;;;4.79;69.00;100919.44;5094600;28;20047;-65
2022/01/31 01:35:37;;;;;;;18.80;4.10;;;;;;;4.83;69.34;100896.38;5131369;27;20387;-65
2022/01/31 01:38:07;;;;;;;23.85;4.80;;;;;;;4.87;69.22;100889.94;5115281;27;20101;-65
2022/01/31 01:40:37;;;;;;;23.25;5.00;;;;;;;4.84;69.34;100871.78;5109774;28;20135;-64
2022/01/31 01:43:04;;;;;;;16.92;4.45;;;;;;;4.81;69.82;100851.81;5089936;28;20044;-65
2022/01/31 01:45:32;;;;;;;23.88;4.50;;;;;;;4.86;69.66;100848.00;5089062;28;20090;-65
2022/01/31 01:48:00;;;;;;;22.92;4.70;;;;;;;4.80;69.87;100836.16;5090633;28;20040;-65
2022/01/31 01:50:26;;;;;;;24.20;4.22;;;;;;;4.79;69.91;100829.25;5090277;28;20123;-65
2022/01/31 01:52:54;;;;;;;26.52;4.68;;;;;;;4.89;70.31;100816.22;5095697;28;20400;-65
2022/01/31 01:55:21;;;;;;;28.05;4.93;;;;;;;4.81;69.46;100793.16;5108952;28;20118;-65
2022/01/31 01:57:48;;;;;;;20.45;4.30;;;;;;;4.90;70.03;100787.19;5092651;28;20043;-63
2022/01/31 02:00:18;;;;;;;21.70;4.45;;;;;;;4.85;70.18;100780.63;5110162;28;20039;-63
2022/01/31 02:02:48;;;;;;;22.23;4.65;;;;;;;4.84;69.77;100781.56;5110458;28;20036;-65
2022/01/31 02:05:18;;;;;;;19.98;4.32;;;;;;;4.91;70.47;100753.84;5110522;28;20042;-65
2022/01/31 02:07:46;;;;;;;17.00;3.78;;;;;;;4.93;70.42;100747.53;5107727;28;20051;-65
2022/01/31 02:10:15;;;;;;;29.02;4.40;;;;;;;4.89;70.50;100737.38;5110253;28;20043;-65
2022/01/31 02:13:03;;;;;;;20.25;3.92;;;;;;;4.77;71.92;100712.88;5109567;28;20115;-64
2022/01/31 02:15:50;;;;;;;25.63;4.38;;;;;;;4.76;72.49;100696.25;5109828;28;20511;-65
2022/01/31 02:18:45;;;;;;;17.45;3.42;;;;;;;4.70;73.08;100691.47;5110125;28;20066;-65
2022/01/31 02:21:18;;;;;;;15.80;3.35;;;;;;;4.69;72.32;100691.59;5110078;28;20404;-66
2022/01/31 02:23:47;;;;;;;18.50;4.07;;;;;;;4.68;73.67;100677.63;5110369;28;20050;-65
2022/01/31 02:26:33;;;;;;;24.48;4.72;;;;;;;4.63;75.21;100678.91;5088404;28;20420;-65
2022/01/31 02:29:11;;;;;;;22.33;4.22;;;;;;;4.55;77.36;100671.63;5089683;28;20067;-64
2022/01/31 02:31:47;;;;;;;24.80;4.30;;;;;;;4.54;78.11;100662.06;5093312;28;20036;-64
2022/01/31 02:34:14;;;;;;;20.85;4.13;;;;;;;4.53;78.68;100658.59;5109748;28;20044;-64
2022/01/31 02:36:41;;;;;;;18.83;4.80;;;;;;;4.40;80.33;100634.22;5107727;28;20050;-64
2022/01/31 02:39:10;;;;;;;23.98;3.92;;;;;;;4.41;80.63;100633.25;5109719;28;20094;-64
2022/01/31 02:41:45;;;;;;;21.52;4.60;;;;;;;4.35;82.14;100621.44;5108395;28;20082;-64
2022/01/31 02:44:15;;;;;;;22.73;4.85;;;;;;;4.31;82.44;100627.03;5108349;28;20119;-64
2022/01/31 02:47:08;;;;;;;22.05;4.75;;;;;;;4.35;81.20;100616.19;5094845;28;20036;-64
2022/01/31 02:49:45;;;;;;;24.13;4.43;;;;;;;4.34;82.30;100609.25;5078715;28;20064;-64
2022/01/31 02:52:14;;;;;;;30.17;4.57;;;;;;;4.32;82.42;100602.44;5079155;28;20097;-64
2022/01/31 02:54:41;;;;;;;16.95;4.07;;;;;;;4.32;82.80;100589.31;5095489;28;20040;-64
2022/01/31 02:57:08;;;;;;;31.33;4.53;;;;;;;4.25;83.57;100594.19;5095951;28;20044;-64
2022/01/31 02:59:35;;;;;;;18.70;4.07;;;;;;;4.19;83.58;100592.03;5095639;28;20051;-64
2022/01/31 03:02:04;;;;;;;23.63;4.90;;;;;;;4.20;84.39;100583.19;5094451;28;20032;-65
2022/01/31 03:04:31;;;;;;;19.75;4.13;;;;;;;4.16;84.47;100574.72;5093599;28;20117;-64
2022/01/31 03:07:00;;;;;;;24.25;4.00;;;;;;;4.17;84.39;100571.16;5095594;28;20575;-64
2022/01/31 03:09:27;;;;;;;13.95;3.70;;;;;;;4.14;85.28;100547.75;5095557;28;20044;-64
2022/01/31 03:11:55;;;;;;;19.10;3.95;;;;;;;4.07;85.81;100541.28;5095671;28;20040;-64
2022/01/31 03:14:27;;;;;;;20.60;4.22;;;;;;;3.89;85.59;100535.66;5100994;28;20401;-64
2022/01/31 03:16:57;;;;;;;22.13;4.43;;;;;;;3.93;85.88;100537.09;5115311;28;20071;-64
2022/01/31 03:19:38;;;;;;;21.02;4.15;;;;;;;3.87;86.20;100526.22;5115802;28;20526;-64
2022/01/31 03:22:06;;;;;;;9.98;3.35;;;;;;;3.71;86.56;100516.03;5114275;28;20048;-64
2022/01/31 03:24:34;;;;;;;20.85;4.00;;;;;;;3.81;87.71;100524.91;5115742;28;20088;-64
2022/01/31 03:27:01;;;;;;;19.17;4.20;;;;;;;3.72;87.21;100523.81;5115911;28;20051;-64
2022/01/31 03:29:29;;;;;;;13.27;3.65;;;;;;;3.79;86.97;100495.31;5115602;28;20109;-64
2022/01/31 03:31:55;;;;;;;16.40;3.92;;;;;;;3.77;87.38;100492.81;5105735;28;20048;-64
2022/01/31 03:34:22;;;;;;;14.15;3.97;;;;;;;3.70;87.62;100501.28;5091567;28;20052;-64
2022/01/31 03:36:49;;;;;;;16.60;4.07;;;;;;;3.84;88.25;100495.81;5095049;28;20161;-64
2022/01/31 03:39:19;;;;;;;14.32;4.18;;;;;;;3.89;87.94;100498.91;5095121;28;20071;-64
2022/01/31 03:41:46;;;;;;;18.50;4.63;;;;;;;3.95;87.90;100489.75;5094809;28;20036;-64
2022/01/31 03:44:13;;;;;;;13.90;3.75;;;;;;;3.88;88.85;100478.06;5095010;28;20547;-64
2022/01/31 03:46:40;;;;;;;18.67;4.22;;;;;;;3.83;88.56;100473.13;5094536;28;20058;-64
2022/01/31 03:49:07;;;;;;;15.18;4.75;;;;;;;3.89;88.61;100461.34;5093770;28;20043;-64
2022/01/31 03:51:38;;;;;;;;;;;;;;;3.97;88.80;100459.78;5094374;28;20048;-64
2022/01/31 03:54:06;;;;;;;19.27;4.28;;;;;;;3.92;89.65;100435.69;5077043;28;20440;-64
2022/01/31 03:56:32;;;;;;;15.38;4.28;;;;;;;3.83;88.83;100452.97;5092566;28;20403;-64
2022/01/31 03:59:15;;;;;;;13.30;3.78;;;;;;;3.93;89.68;100458.38;5078652;28;20446;-65
2022/01/31 04:01:42;;;;;;;11.55;3.10;;;;;;;3.87;89.80;100445.69;5094669;28;20051;-64
2022/01/31 04:04:13;;;;;;;16.90;4.05;;;;;;;3.95;90.01;100450.38;5101013;28;20031;-64
2022/01/31 04:06:51;;;;;;;15.77;4.43;;;;;;;3.93;90.61;100433.88;5090531;27;20392;-63
2022/01/31 04:09:31;;;;;;;12.35;3.90;;;;;;;3.99;90.18;100418.50;5152327;27;20836;-64
2022/01/31 04:12:11;;;;;;;17.50;3.97;;;;;;;4.01;90.81;100416.59;5082594;27;20387;-62
2022/01/31 04:14:49;;;;;;;12.07;3.85;;;;;;;3.99;91.33;100409.81;5131641;27;20378;-62
2022/01/31 04:17:27;;;;;;;11.18;3.88;;;;;;;4.08;90.80;100416.13;5131371;27;20381;-64
2022/01/31 04:20:09;;;;;;;18.83;4.50;;;;;;;4.05;91.18;100419.81;5090730;27;20718;-64
2022/01/31 04:25:41;;;;;;;10.45;4.10;;;;;;;4.21;90.96;100415.03;5090688;27;20379;-64
2022/01/31 04:28:30;;;;;;;14.10;4.10;;;;;;;4.29;90.78;100395.22;5110997;27;20128;-64
2022/01/31 04:31:24;;;;;;;13.95;4.03;;;;;;;4.34;90.10;100420.16;5127176;27;20365;-65
2022/01/31 04:33:54;;;;;;;11.77;3.95;;;;;;;4.41;89.37;100389.81;5116446;28;20089;-65
2022/01/31 04:36:23;;;;;;;15.88;4.22;;;;;;;4.38;89.48;100403.22;5114057;28;20102;-64
2022/01/31 04:38:52;;;;;;;12.80;4.68;;;;;;;4.44;89.23;100407.16;5105916;28;20041;-64
2022/01/31 04:41:31;;;;;;;12.48;4.03;;;;;;;4.53;88.51;100393.28;5110989;27;20649;-64
2022/01/31 04:44:10;;;;;;;16.50;5.15;;;;;;;4.59;88.10;100398.03;5126201;27;20386;-64
2022/01/31 04:46:40;;;;;;;17.48;5.60;;;;;;;4.68;89.03;100398.25;5068248;28;20397;-64
2022/01/31 04:49:09;;;;;;;14.43;5.10;;;;;;;4.70;88.26;100397.16;5072696;28;20083;-64
2022/01/31 04:51:39;;;;;;;24.02;5.45;;;;;;;4.72;88.27;100397.03;5110159;28;20436;-64
2022/01/31 04:54:16;;;;;;;19.60;6.05;;;;;;;4.77;88.58;100394.88;5131235;27;20371;-62
2022/01/31 04:56:46;;;;;;;20.23;6.05;;;;;;;4.85;87.34;100386.34;5131485;27;20092;-62
2022/01/31 04:59:17;;;;;;;18.90;6.32;;;;;;;4.81;87.91;100383.97;5124980;27;20924;-63
2022/01/31 05:01:55;;;;;;;25.50;7.90;;;;;;;4.99;88.56;100386.06;5116845;27;20351;-62
2022/01/31 05:04:34;;;;;;;22.45;7.20;;;;;;;4.98;88.12;100381.75;5113402;27;20347;-64
2022/01/31 05:07:13;;;;;;;20.92;6.43;;;;;;;4.97;87.83;100369.56;5113826;27;20380;-62
2022/01/31 05:09:44;;;;;;;16.55;5.90;;;;;;;4.98;88.59;100358.94;5110958;28;20096;-64
2022/01/31 05:12:24;;;;;;;20.63;7.32;;;;;;;5.01;89.05;100363.09;5131598;27;20390;-62
2022/01/31 05:15:04;;;;;;;17.05;6.00;;;;;;;5.06;89.20;100357.44;5131209;27;20349;-62
2022/01/31 05:17:42;;;;;;;24.85;6.45;;;;;;;5.07;88.43;100359.13;5131660;27;20751;-65
2022/01/31 05:20:20;;;;;;;24.80;6.40;;;;;;;5.14;88.51;100350.59;5128668;27;21230;-65
2022/01/31 05:22:58;;;;;;;24.20;6.07;;;;;;;5.08;88.71;100352.91;5082503;27;20361;-64
2022/01/31 05:25:37;;;;;;;17.00;5.55;;;;;;;5.15;88.40;100359.34;5131083;27;20357;-65
2022/01/31 05:28:15;;;;;;;20.85;5.80;;;;;;;5.10;88.12;100338.66;5070634;27;20364;-64
2022/01/31 05:30:53;;;;;;;22.45;6.13;;;;;;;5.14;88.22;100353.22;5129509;27;20382;-64
2022/01/31 05:33:22;;;;;;;18.95;5.57;;;;;;;5.12;88.87;100344.63;5131137;27;20039;-65
2022/01/31 05:36:00;;;;;;;19.67;6.35;;;;;;;5.19;88.49;100345.78;5131021;27;20885;-64
2022/01/31 05:38:39;;;;;;;22.48;6.55;;;;;;;5.25;88.13;100335.72;5090505;27;20360;-65
2022/01/31 05:41:17;;;;;;;19.20;5.55;;;;;;;5.15;87.49;100343.56;5086109;28;20084;-64
2022/01/31 05:43:55;;;;;;;19.85;5.47;;;;;;;5.26;88.57;100337.41;5090546;27;20385;-64
2022/01/31 05:46:33;;;;;;;16.17;4.93;;;;;;;5.26;87.01;100340.03;5131205;27;20350;-64
2022/01/31 05:49:02;;;;;;;18.80;5.32;;;;;;;5.24;87.27;100331.41;5131408;27;20092;-65
2022/01/31 05:51:54;;;;;;;24.73;4.63;;;;;;;5.28;86.44;100336.28;5110867;27;20381;-63
2022/01/31 05:54:35;;;;;;;19.17;4.13;;;;;;;5.35;85.68;100334.81;5110760;27;20121;-64
2022/01/31 05:57:06;;;;;;;18.42;4.03;;;;;;;5.34;85.94;100340.19;5110729;28;20523;-63
2022/01/31 05:59:44;;;;;;;22.48;3.97;;;;;;;5.37;84.83;100342.56;5131343;27;20350;-64
2022/01/31 06:02:22;;;;;;;21.20;4.47;;;;;;;5.38;85.33;100334.56;5130915;27;20375;-64
2022/01/31 06:04:50;;;;;;;25.98;4.57;;;;;;;5.35;84.72;100324.28;5121952;28;20089;-64
2022/01/31 06:07:17;;;;;;;24.95;4.85;;;;;;;5.37;84.90;100311.00;5106620;28;20052;-64
2022/01/31 06:09:43;;;;;;;22.48;3.58;;;;;;;5.43;84.13;100309.66;5109360;28;20101;-64
2022/01/31 06:12:11;;;;;;;11.05;2.72;;;;;;;5.44;83.20;100306.91;5110220;28;20161;-64
2022/01/31 06:14:39;;;;;;;15.15;3.05;;;;;;;5.37;83.37;100306.56;5109587;28;20044;-64
2022/01/31 06:17:06;;;;;;;17.88;3.63;;;;;;;5.42;82.58;100305.34;5110310;28;20414;-64
2022/01/31 06:19:32;;;;;;;23.92;3.17;;;;;;;5.44;82.60;100300.78;5110100;28;20043;-64
2022/01/31 06:21:59;;;;;;;22.08;4.03;;;;;;;5.49;81.70;100298.59;5092411;28;20057;-64
2022/01/31 06:24:26;;;;;;;23.75;3.92;;;;;;;5.47;82.67;100300.53;5110652;28;20052;-64
2022/01/31 06:26:53;;;;;;;25.08;4.20;;;;;;;5.47;81.45;100314.50;5108986;28;20071;-64
2022/01/31 06:29:23;;;;;;;23.88;3.33;;;;;;;5.46;80.86;100298.88;5110591;28;20055;-64
2022/01/31 06:31:55;;;;;;;23.40;4.80;;;;;;;5.46;81.19;100291.81;5088795;28;20131;-64
2022/01/31 06:34:22;;;;;;;19.10;3.33;;;;;;;5.43;80.30;100281.53;5100460;28;20040;-64
2022/01/31 06:36:49;;;;;;;21.27;3.47;;;;;;;5.42;80.92;100286.94;5109143;28;20039;-64
2022/01/31 06:39:16;;;;;;;19.17;3.03;;;;;;;5.50;80.45;100282.69;5108616;28;20507;-64
2022/01/31 06:41:43;;;;;;;13.07;2.33;;;;;;;5.47;79.51;100282.09;5116128;28;20096;-64
2022/01/31 06:44:10;;;;;;;19.08;3.58;;;;;;;5.45;80.53;100273.50;5109727;28;20066;-64
2022/01/31 06:46:37;;;;;;;17.35;3.72;;;;;;;5.42;79.61;100274.63;5104835;28;20492;-64
2022/01/31 06:49:03;;;;;;;14.75;2.88;;;;;;;5.43;79.31;100276.28;5109741;28;20044;-65
2022/01/31 06:51:30;;;;;;;27.58;3.67;;;;;;;5.45;80.07;100297.19;5114717;28;20032;-64
2022/01/31 06:53:59;;;;;;;22.13;3.15;;;;;;;5.39;81.04;100296.75;5129590;27;20118;-64
2022/01/31 06:56:30;;;;;;;18.35;3.08;;;;;;;5.33;83.57;100292.03;5125069;28;20039;-64
2022/01/31 06:58:58;;;;;;;27.38;3.45;;;;;;;5.16;83.00;100292.63;5109631;28;20047;-63
2022/01/31 07:01:25;;;;;;;20.45;3.22;;;;;;;5.02;84.92;100290.31;5118045;28;20093;-63
2022/01/31 07:03:53;;;;;;;16.30;3.33;;;;;;;5.06;85.61;100304.84;5128482;27;20514;-63
2022/01/31 07:06:23;;;;;;;17.42;3.65;;;;;;;4.91;85.69;100314.88;5130216;27;20073;-65
2022/01/31 07:08:51;;;;;;;22.42;2.85;;;;;;;4.81;86.00;100306.94;5129992;27;20039;-63
2022/01/31 07:11:23;;;;;;;14.15;3.00;;;;;;;4.53;89.04;100324.13;5130140;27;20549;-63
2022/01/31 07:14:01;;;;;;;19.52;3.90;;;;;;;4.50;88.97;100346.22;5114871;28;20423;-63
2022/01/31 07:16:28;;;;;;;17.20;2.45;;;;;;;4.38;88.72;100331.44;5116241;28;20040;-63
2022/01/31 07:19:03;;;;;;;11.45;2.30;;;;;;;4.40;88.21;100305.88;5116080;28;20051;-63
2022/01/31 07:21:37;;;;;;;11.32;2.30;;;;;;;4.41;88.65;100305.78;5116194;28;20042;-64
2022/01/31 07:24:19;;;;;;;10.73;2.10;;;;;;;4.18;87.26;100293.66;5107296;28;20446;-63
2022/01/31 07:26:47;;;;;;;14.73;2.40;;;;;;;4.07;88.84;100288.44;5094787;28;20058;-64
2022/01/31 07:29:14;;;;;;;10.80;2.00;;;;;;;3.97;87.87;100285.75;5094463;28;20484;-63
2022/01/31 07:31:42;;;;;;;11.65;3.33;;;;;;;3.93;87.95;100277.28;5093649;28;20035;-63
2022/01/31 07:34:09;;;;;;;13.52;4.15;;;;;;;3.96;87.63;100277.00;5095927;28;20052;-64
2022/01/31 07:36:36;;;;;;;14.93;3.80;;;;;;;4.04;87.68;100268.56;5094137;28;20048;-63
2022/01/31 07:39:03;;;;;;;14.77;3.72;;;;;;;4.06;87.57;100279.75;5077777;28;20488;-63
2022/01/31 07:41:30;;;;;;;15.63;3.72;;;;;;;4.04;87.53;100289.53;5095095;28;20039;-63
2022/01/31 07:43:57;;;;;;;9.32;2.47;;;;;;;4.10;87.79;100280.34;5094216;28;20040;-63
2022/01/31 07:46:24;;;;;;;11.07;2.25;;;;;;;4.08;88.07;100290.97;5094171;28;20032;-63
2022/01/31 07:48:53;;;;;;;8.88;2.30;;;;;;;4.16;87.91;100280.66;5091175;28;20036;-62
2022/01/31 07:51:21;;;;;;;9.50;1.98;;;;;;;4.25;86.63;100284.34;5092121;28;20036;-67
2022/01/31 07:53:48;;;;;;;10.55;2.38;;;;;;;4.31;87.27;100277.75;5091459;28;20044;-66
2022/01/31 07:56:17;;;;;;;7.13;2.03;;;;;;;4.31;87.34;100267.25;5093189;28;20050;-64
2022/01/31 07:58:44;;;;;;;9.45;3.03;;;;;;;4.35;86.86;100277.41;5090896;28;20093;-65
2022/01/31 08:01:12;;;;;;;12.10;2.70;;;;;;;4.58;87.31;100267.63;5073445;28;20040;-65
2022/01/31 08:03:39;;;;;;;14.32;2.65;;;;;;;4.39;86.21;100276.19;5095399;28;20058;-65
2022/01/31 08:06:06;;;;;;;13.10;3.20;;;;;;;4.35;88.10;100264.25;5093125;28;20048;-67
2022/01/31 08:08:34;;;;;;;13.07;2.83;;;;;;;4.45;87.68;100271.38;5093583;28;20100;-63
2022/01/31 08:11:04;;;;;;;22.63;4.80;;;;;;;4.49;87.32;100272.78;5092335;28;20149;-63
2022/01/31 08:13:33;;;;;;;126.50;42.80;;;;;;;4.51;87.56;100281.38;5093285;28;20082;-64
2022/01/31 08:16:09;;;;;;;27.67;5.00;;;;;;;4.48;86.98;100285.09;5093202;28;20127;-64
2022/01/31 08:18:39;;;;;;;15.00;3.45;;;;;;;4.48;87.26;100273.78;5098484;28;20108;-63
2022/01/31 08:21:07;;;;;;;21.15;4.20;;;;;;;4.56;87.04;100287.91;5107113;28;20507;-63
2022/01/31 08:23:34;;;;;;;22.17;4.60;;;;;;;4.57;88.12;100288.78;5098680;28;20514;-63
2022/01/31 08:26:04;;;;;;;16.13;3.17;;;;;;;4.57;87.63;100286.97;5096040;28;20036;-63
2022/01/31 08:28:42;;;;;;;19.92;3.35;;;;;;;4.53;87.64;100284.72;5102269;28;20151;-63
2022/01/31 08:31:22;;;;;;;22.08;4.00;;;;;;;4.66;88.18;100281.91;5102331;28;20106;-64
2022/01/31 08:34:05;;;;;;;20.10;4.15;;;;;;;4.53;87.73;100272.44;5100488;28;20151;-64
2022/01/31 08:36:34;;;;;;;11.55;3.03;;;;;;;4.54;86.57;100266.19;5091075;28;20040;-63
2022/01/31 08:39:12;;;;;;;19.02;3.15;;;;;;;4.39;87.92;100283.22;5102039;28;20093;-63
2022/01/31 08:41:43;;;;;;;14.77;3.30;;;;;;;4.41;88.00;100291.81;5101333;28;20040;-63
2022/01/31 08:44:12;;;;;;;12.43;2.75;;;;;;;4.28;87.08;100273.59;5084277;28;20040;-63
2022/01/31 08:46:40;;;;;;;12.43;2.72;;;;;;;4.13;88.92;100287.94;5081625;28;20047;-63
2022/01/31 08:49:08;;;;;;;19.05;3.53;;;;;;;4.03;89.90;100285.25;5107470;28;20150;-63
2022/01/31 08:51:36;;;;;;;15.60;4.78;;;;;;;4.05;89.08;100278.06;5108458;28;20487;-64
2022/01/31 08:54:06;;;;;;;15.20;4.57;;;;;;;4.06;88.77;100289.41;5097646;28;20912;-64
2022/01/31 08:56:40;;;;;;;15.77;3.90;;;;;;;3.95;89.44;100269.28;5085803;28;20106;-63
2022/01/31 08:59:07;;;;;;;19.90;4.40;;;;;;;3.93;88.07;100268.56;5094660;28;20131;-63
2022/01/31 09:01:34;;;;;;;18.48;3.08;;;;;;;3.94;89.48;100260.56;5110853;28;20419;-64
2022/01/31 09:04:03;;;;;;;14.68;2.85;;;;;;;3.97;89.58;100262.13;5088366;28;20051;-64
2022/01/31 09:06:32;;;;;;;15.35;2.70;;;;;;;4.01;89.56;100264.34;5104728;28;20040;-64
2022/01/31 09:09:05;;;;;;;16.20;2.85;;;;;;;4.00;89.97;100261.84;5099927;28;20044;-63
2022/01/31 09:11:32;;;;;;;17.45;3.30;;;;;;;3.99;88.37;100274.16;5100860;28;20044;-64
2022/01/31 09:13:59;;;;;;;12.73;2.90;;;;;;;3.96;88.94;100249.94;5086035;28;20546;-63
2022/01/31 09:16:26;;;;;;;13.07;2.70;;;;;;;4.00;89.00;100274.97;5101067;28;20479;-63
2022/01/31 09:18:53;;;;;;;16.63;3.90;;;;;;;3.99;89.00;100249.72;5106446;28;20040;-63
2022/01/31 09:21:20;;;;;;;20.30;3.72;;;;;;;4.00;89.38;100251.34;5088554;28;20043;-63
2022/01/31 09:23:53;;;;;;;22.48;5.35;;;;;;;4.00;90.17;100246.09;5101395;28;20100;-63
2022/01/31 09:26:23;;;;;;;22.70;4.22;;;;;;;4.08;89.25;100250.75;5066791;28;20070;-63
2022/01/31 09:28:51;;;;;;;12.95;3.33;;;;;;;4.01;89.19;100256.50;5099677;28;20044;-63
2022/01/31 09:31:20;;;;;;;13.40;4.05;;;;;;;3.97;89.43;100257.69;5090369;28;20048;-63
2022/01/31 09:33:48;;;;;;;23.83;4.53;;;;;;;3.96;90.11;100244.69;5088768;28;20051;-63
2022/01/31 09:36:15;;;;;;;12.88;3.70;;;;;;;3.92;90.07;100257.22;5071473;28;20040;-64
2022/01/31 09:38:42;;;;;;;23.02;4.20;;;;;;;3.92;90.93;100224.91;5091670;28;20105;-63
2022/01/31 09:41:14;;;;;;;20.60;4.35;;;;;;;3.93;90.84;100232.66;5090244;28;20507;-63
2022/01/31 09:48:58;;;;;;;22.98;3.80;;;;;;;3.93;90.15;100231.81;5100641;28;20539;-63
2022/01/31 09:51:26;;;;;;;18.65;3.58;;;;;;;3.93;90.07;100239.69;5094794;28;20112;-63
2022/01/31 09:53:59;;;;;;;19.70;3.72;;;;;;;3.96;91.08;100242.88;5092725;28;20044;-63
2022/01/31 09:56:30;;;;;;;23.10;4.32;;;;;;;3.99;91.06;100223.47;5087562;28;20522;-63
2022/01/31 09:58:58;;;;;;;13.82;4.13;;;;;;;4.12;90.90;100223.28;5090378;28;20038;-64
2022/01/31 10:01:30;;;;;;;18.52;4.07;;;;;;;4.10;90.28;100227.84;5090457;28;20056;-63
2022/01/31 10:04:07;;;;;;;19.33;3.25;;;;;;;4.09;90.96;100241.91;5087889;28;20369;-64
2022/01/31 10:06:36;;;;;;;20.95;3.47;;;;;;;4.13;90.16;100240.69;5089459;28;20505;-63
2022/01/31 10:12:04;;;;;;;16.67;3.20;;;;;;;4.13;90.55;100240.69;5137847;27;20375;-63
2022/01/31 10:17:31;;;;;;;28.65;4.47;;;;;;;4.22;90.59;100264.44;5126678;28;20043;-61
2022/01/31 10:20:29;;;;;;;21.85;2.95;;;;;;;4.36;89.66;100257.22;5128905;28;20027;-62
2022/01/31 10:23:13;;;;;;;23.55;3.10;;;;;;;4.30;90.74;100273.47;5111190;28;20048;-63
2022/01/31 10:25:42;;;;;;;26.27;3.42;;;;;;;4.30;90.15;100255.09;5122894;28;20127;-62
2022/01/31 10:28:15;;;;;;;21.42;2.70;;;;;;;4.25;90.34;100278.25;5117459;28;20051;-62
2022/01/31 10:30:43;;;;;;;;;;;;;;;4.32;90.07;100267.13;5109237;28;20491;-62
2022/01/31 10:33:10;;;;;;;18.42;2.33;;;;;;;4.38;90.29;100278.91;5128261;28;19926;-63
2022/01/31 10:35:40;;;;;;;16.45;2.55;;;;;;;4.34;91.03;100275.72;5128932;28;20055;-62
2022/01/31 10:38:11;;;;;;;19.67;2.92;;;;;;;4.47;90.51;100283.41;5130668;27;20039;-62
2022/01/31 10:52:08;;;;;;;17.08;2.22;;;;;;;4.47;90.10;100295.72;5128953;27;20314;-62
2022/01/31 10:57:12;;;;;;;21.77;2.42;;;;;;;4.49;89.46;100296.44;5129409;27;20048;-62
2022/01/31 10:59:42;;;;;;;23.17;3.17;;;;;;;4.51;89.68;100289.25;5128081;28;20138;-62
2022/01/31 11:02:16;;;;;;;25.10;3.65;;;;;;;4.58;89.56;100303.56;5128656;28;20062;-62
2022/01/31 11:04:45;;;;;;;27.92;5.50;;;;;;;4.66;89.94;100301.16;5125556;28;20486;-63
2022/01/31 11:07:15;;;;;;;31.63;3.13;;;;;;;4.66;90.79;100311.66;5126161;28;20039;-63
2022/01/31 11:09:43;;;;;;;21.73;3.40;;;;;;;4.60;89.87;100309.50;5128176;27;20066;-63
2022/01/31 11:12:11;;;;;;;28.80;4.25;;;;;;;4.55;89.75;100307.28;5127731;28;20528;-62
2022/01/31 11:14:43;;;;;;;27.65;3.97;;;;;;;4.50;89.56;100312.06;5128198;27;20047;-62
2022/01/31 11:17:16;;;;;;;21.70;2.83;;;;;;;4.60;89.76;100309.50;5122488;27;20036;-62
2022/01/31 11:19:47;;;;;;;21.38;2.92;;;;;;;4.53;89.38;100314.47;5126762;27;20084;-63
2022/01/31 11:22:17;;;;;;;23.50;3.00;;;;;;;4.57;88.34;100325.56;5113524;28;20067;-63
2022/01/31 11:24:51;;;;;;;20.40;3.13;;;;;;;4.47;89.57;100327.25;5113613;28;20130;-62
2022/01/31 11:27:23;;;;;;;32.20;4.25;;;;;;;4.48;90.47;100340.25;5112316;28;20163;-61
2022/01/31 11:29:55;;;;;;;29.08;4.15;;;;;;;4.54;89.90;100345.00;5112935;28;20055;-61
2022/01/31 11:32:23;;;;;;;;;;;;;;;4.50;90.19;100345.41;5108611;28;20050;-62
2022/01/31 11:34:50;;;;;;;28.00;4.22;;;;;;;4.50;89.76;100354.09;5113205;27;19932;-61
2022/01/31 11:37:20;;;;;;;24.60;4.93;;;;;;;4.53;90.01;100364.38;5108380;28;20123;-61
2022/01/31 11:39:56;;;;;;;32.40;5.72;;;;;;;4.55;89.09;100348.50;5113900;28;20441;-61
2022/01/31 11:42:23;;;;;;;28.95;4.22;;;;;;;4.58;88.56;100363.97;5113044;28;20122;-62
2022/01/31 11:45:28;;;;;;;29.30;4.30;;;;;;;4.60;88.92;100362.91;5113624;28;20032;-61
2022/01/31 11:47:58;;;;;;;29.50;5.03;;;;;;;4.79;89.32;100370.13;5106022;28;20039;-62
2022/01/31 11:50:26;;;;;;;39.58;5.75;;;;;;;4.78;88.86;100367.63;5112510;28;20729;-62
2022/01/31 11:53:00;;;;;;;33.67;4.20;;;;;;;4.88;88.60;100375.59;5104699;28;20047;-62
2022/01/31 11:55:33;;;;;;;40.20;5.75;;;;;;;4.76;89.27;100382.69;5086286;28;20043;-62
2022/01/31 11:58:00;;;;;;;33.92;4.78;;;;;;;4.76;88.89;100390.56;5110310;28;20095;-62
2022/01/31 12:00:28;;;;;;;33.13;4.75;;;;;;;4.84;88.69;100382.91;5114066;27;20028;-62
2022/01/31 12:03:01;;;;;;;30.35;4.35;;;;;;;4.79;88.68;100396.41;5063199;28;20048;-62
2022/01/31 12:05:32;;;;;;;43.97;6.47;;;;;;;4.84;88.65;100413.59;5109912;28;20085;-62
2022/01/31 12:08:11;;;;;;;47.25;5.82;;;;;;;4.93;88.14;100412.81;5111211;28;20039;-62
2022/01/31 12:10:46;;;;;;;50.88;5.85;;;;;;;4.86;88.92;100416.91;5111120;28;20048;-62
2022/01/31 12:13:53;;;;;;;38.80;5.88;;;;;;;4.87;88.67;100410.72;5112915;28;20058;-62
2022/01/31 12:16:45;;;;;;;38.97;5.30;;;;;;;4.90;88.26;100403.41;5112473;28;20479;-62